N805AB KCLT-
Flight info
| Callsign | N805AB |
|---|---|
| Flight time | N/A |
| Altitude | VFR |
| Route | VFR E |
| Aircraft | P180/L-DOV/C |
Departure
| Time | 2026-05-07 00:44 |
|---|---|
| Airport | Charlotte Douglas International Airport (KCLT) |
Arrival
| Time | N/A |
|---|---|
| Airport | - |
| Time | Latitude | Longitude | Altitude | Speed | Heading |
|---|---|---|---|---|---|
| 2026-05-07 00:37 | 35.21049 | -80.93203 | 734 ft | 0 kts | 87° |
| 2026-05-07 00:38 | 35.21048 | -80.93202 | 734 ft | 0 kts | 96° |
| 2026-05-07 00:38 | 35.21048 | -80.93201 | 734 ft | 0 kts | 100° |
| 2026-05-07 00:39 | 35.21047 | -80.93199 | 734 ft | 1 kts | 128° |
| 2026-05-07 00:39 | 35.21034 | -80.93212 | 734 ft | 5 kts | 261° |
| 2026-05-07 00:39 | 35.21046 | -80.93272 | 734 ft | 9 kts | 302° |
| 2026-05-07 00:39 | 35.21111 | -80.93310 | 735 ft | 12 kts | 330° |
| 2026-05-07 00:40 | 35.21186 | -80.93372 | 735 ft | 15 kts | 353° |
| 2026-05-07 00:40 | 35.21297 | -80.93383 | 736 ft | 17 kts | 355° |
| 2026-05-07 00:40 | 35.21427 | -80.93395 | 738 ft | 20 kts | 356° |
| 2026-05-07 00:40 | 35.21570 | -80.93407 | 739 ft | 21 kts | 356° |
| 2026-05-07 00:41 | 35.21725 | -80.93419 | 741 ft | 23 kts | 356° |
| 2026-05-07 00:41 | 35.21891 | -80.93426 | 743 ft | 24 kts | 6° |
| 2026-05-07 00:41 | 35.21945 | -80.93415 | 745 ft | 0 kts | 11° |
| 2026-05-07 00:41 | 35.21952 | -80.93413 | 745 ft | 4 kts | 12° |
| 2026-05-07 00:42 | 35.21995 | -80.93402 | 746 ft | 7 kts | 12° |
| 2026-05-07 00:42 | 35.22071 | -80.93386 | 745 ft | 16 kts | 4° |
| 2026-05-07 00:42 | 35.22219 | -80.93392 | 744 ft | 26 kts | 356° |
| 2026-05-07 00:42 | 35.22405 | -80.93409 | 748 ft | 28 kts | 356° |
| 2026-05-07 00:43 | 35.22508 | -80.93437 | 746 ft | 4 kts | 299° |
| 2026-05-07 00:43 | 35.22515 | -80.93490 | 749 ft | 8 kts | 270° |
| 2026-05-07 00:43 | 35.22512 | -80.93563 | 749 ft | 11 kts | 265° |
| 2026-05-07 00:43 | 35.22421 | -80.93611 | 747 ft | 29 kts | 177° |
| 2026-05-07 00:44 | 35.22176 | -80.93593 | 745 ft | 63 kts | 175° |
| 2026-05-07 00:44 | 35.21470 | -80.93532 | 787 ft | 140 kts | 179° |
| 2026-05-07 00:44 | 35.20377 | -80.93429 | 1235 ft | 166 kts | 172° |
| 2026-05-07 00:44 | 35.19352 | -80.92702 | 1828 ft | 186 kts | 140° |
| 2026-05-07 00:45 | 35.18624 | -80.91262 | 2065 ft | 214 kts | 117° |
| 2026-05-07 00:45 | 35.18270 | -80.89490 | 2721 ft | 216 kts | 103° |
| 2026-05-07 00:45 | 35.18101 | -80.87662 | 3323 ft | 220 kts | 101° |
| 2026-05-07 00:45 | 35.17945 | -80.85714 | 3475 ft | 241 kts | 101° |
| 2026-05-07 00:46 | 35.17771 | -80.83606 | 3450 ft | 258 kts | 101° |
| 2026-05-07 00:46 | 35.17561 | -80.81377 | 3450 ft | 268 kts | 101° |
| 2026-05-07 00:46 | 35.17325 | -80.79101 | 3463 ft | 273 kts | 102° |
| 2026-05-07 00:46 | 35.17061 | -80.76788 | 3461 ft | 277 kts | 102° |
| 2026-05-07 00:47 | 35.16779 | -80.74458 | 3456 ft | 277 kts | 103° |
| 2026-05-07 00:47 | 35.16779 | -80.72087 | 3449 ft | 282 kts | 86° |
| 2026-05-07 00:47 | 35.16930 | -80.69703 | 3452 ft | 280 kts | 90° |
| 2026-05-07 00:47 | 35.16998 | -80.67357 | 3455 ft | 282 kts | 92° |
| 2026-05-07 00:48 | 35.17055 | -80.64956 | 3449 ft | 283 kts | 92° |
| 2026-05-07 00:48 | 35.17109 | -80.62563 | 3558 ft | 278 kts | 92° |
| 2026-05-07 00:48 | 35.17165 | -80.60225 | 3749 ft | 273 kts | 92° |
| 2026-05-07 00:48 | 35.17224 | -80.57920 | 3940 ft | 270 kts | 91° |
| 2026-05-07 00:49 | 35.17280 | -80.55629 | 4138 ft | 270 kts | 92° |
| 2026-05-07 00:49 | 35.17395 | -80.53333 | 4326 ft | 273 kts | 81° |
| 2026-05-07 00:49 | 35.18207 | -80.51232 | 4578 ft | 277 kts | 57° |
| 2026-05-07 00:49 | 35.19356 | -80.49329 | 4920 ft | 279 kts | 52° |
| 2026-05-07 00:50 | 35.20526 | -80.47464 | 5276 ft | 280 kts | 51° |
| 2026-05-07 00:50 | 35.21702 | -80.45558 | 5641 ft | 281 kts | 52° |
| 2026-05-07 00:50 | 35.22870 | -80.43652 | 6016 ft | 281 kts | 51° |
| 2026-05-07 00:50 | 35.24034 | -80.41721 | 6387 ft | 282 kts | 51° |
| 2026-05-07 00:51 | 35.25187 | -80.39785 | 6750 ft | 279 kts | 51° |
| 2026-05-07 00:51 | 35.26308 | -80.37876 | 7109 ft | 274 kts | 52° |
| 2026-05-07 00:51 | 35.27411 | -80.35985 | 7404 ft | 274 kts | 52° |
| 2026-05-07 00:51 | 35.28539 | -80.34062 | 7471 ft | 282 kts | 52° |
| 2026-05-07 00:52 | 35.29704 | -80.32087 | 7492 ft | 289 kts | 51° |
| 2026-05-07 00:52 | 35.30891 | -80.30068 | 7506 ft | 294 kts | 51° |
| 2026-05-07 00:52 | 35.32076 | -80.28051 | 7524 ft | 297 kts | 51° |
| 2026-05-07 00:52 | 35.33284 | -80.25995 | 7527 ft | 299 kts | 51° |
| 2026-05-07 00:53 | 35.34497 | -80.23926 | 7536 ft | 299 kts | 51° |
| 2026-05-07 00:53 | 35.35707 | -80.21850 | 7539 ft | 300 kts | 52° |
| 2026-05-07 00:53 | 35.36925 | -80.19766 | 7539 ft | 300 kts | 51° |
| 2026-05-07 00:53 | 35.38142 | -80.17687 | 7542 ft | 301 kts | 52° |
| 2026-05-07 00:54 | 35.39363 | -80.15603 | 7545 ft | 301 kts | 51° |
| 2026-05-07 00:54 | 35.40582 | -80.13520 | 7541 ft | 301 kts | 51° |
| 2026-05-07 00:54 | 35.41803 | -80.11428 | 7544 ft | 301 kts | 52° |
| 2026-05-07 00:54 | 35.43025 | -80.09344 | 7547 ft | 301 kts | 51° |
| 2026-05-07 00:55 | 35.44248 | -80.07257 | 7546 ft | 302 kts | 51° |
| 2026-05-07 00:55 | 35.45451 | -80.05193 | 7545 ft | 301 kts | 51° |
| 2026-05-07 00:55 | 35.46668 | -80.03101 | 7542 ft | 301 kts | 52° |
| 2026-05-07 00:55 | 35.47886 | -80.01018 | 7534 ft | 301 kts | 51° |
| 2026-05-07 00:56 | 35.49108 | -79.98919 | 7535 ft | 302 kts | 51° |